Saint Agatha, Maine
Current Conditions -  °F | °C
As of 8:53 AM on Wednesday 22 Oct 2014 (Local Time) from KFVE Reporting Station
Overcast Overcast  
Wind Chill: -3°   Ceiling: 700
Heat Index:   Visibility: 10mi
Dew Point: -1°   Wind: 10mph
Humidity: 85%   Direction: 30°NNE
Pressure: 30.4"   Gusts: NA
Location:  47.24°N, 68.31°W
Report Text: KFVE 221253Z AUTO 03009KT 10SM BKN007 OVC065 02/M01 A3040 RMK AO2 SLP305 T00171006
Loading
Personal Weather Stations






























Interactive Weather Map
Tropical Storm Tracking
New forecast layout! Learn more

10-Day Weather Forecast

Advertisements
Track Severe Weather on mobile